Time;durP1;ratioP1;P1;durP2;ratioP2;P2;SDS_P1;SDS_P2;PMS_P1;PMS_P2;Temp;Humidity;BMP_temperature;BMP_pressure;BME280_temperature;BME280_humidity;BME280_pressure;Samples;Min_cycle;Max_cycle;Signal;HPM_P1;HPM_P2
2023/03/19 00:01:36;;;;;;;0.38;0.30;;;17.40;69.10;;;;;;5109917;27;45238;-81
2023/03/19 00:04:03;;;;;;;0.50;0.32;;;17.30;69.10;;;;;;5109777;27;45428;-81
2023/03/19 00:06:30;;;;;;;0.95;0.30;;;17.30;69.10;;;;;;5109462;27;45202;-80
2023/03/19 00:08:58;;;;;;;3.42;0.50;;;17.30;69.10;;;;;;5109664;27;45419;-81
2023/03/19 00:11:25;;;;;;;0.32;0.32;;;17.30;69.20;;;;;;5110166;27;45049;-81
2023/03/19 00:13:52;;;;;;;0.88;0.50;;;17.30;69.10;;;;;;5109544;27;45292;-81
2023/03/19 00:16:19;;;;;;;0.45;0.30;;;17.30;69.10;;;;;;5109509;27;45313;-81
2023/03/19 00:18:46;;;;;;;0.43;0.35;;;17.30;69.10;;;;;;5109662;27;45370;-81
2023/03/19 00:21:13;;;;;;;1.15;0.40;;;17.30;69.20;;;;;;5112374;27;45437;-81
2023/03/19 00:23:40;;;;;;;0.73;0.47;;;17.30;69.30;;;;;;5110457;27;47531;-81
2023/03/19 00:26:08;;;;;;;0.52;0.30;;;17.30;69.30;;;;;;5109487;27;45074;-81
2023/03/19 00:28:36;;;;;;;0.30;0.30;;;17.30;69.30;;;;;;5109279;27;45167;-81
2023/03/19 00:31:10;;;;;;;0.30;0.20;;;17.30;69.10;;;;;;5109690;27;45485;-81
2023/03/19 00:33:37;;;;;;;0.28;0.20;;;17.40;69.20;;;;;;5109608;27;47868;-81
2023/03/19 00:36:05;;;;;;;0.30;0.20;;;17.40;69.20;;;;;;5109462;27;45151;-81
2023/03/19 00:38:33;;;;;;;0.80;0.38;;;17.30;69.20;;;;;;5109875;27;45096;-81
2023/03/19 00:40:59;;;;;;;0.98;0.20;;;17.40;69.00;;;;;;5109377;27;45436;-81
2023/03/19 00:43:28;;;;;;;0.65;0.22;;;17.40;69.20;;;;;;5109107;27;47788;-81
2023/03/19 00:45:54;;;;;;;0.20;0.20;;;17.40;68.90;;;;;;5108776;27;45668;-81
2023/03/19 00:48:22;;;;;;;1.35;0.40;;;17.40;69.10;;;;;;5109246;27;45145;-81
2023/03/19 00:50:49;;;;;;;0.57;0.30;;;17.40;68.90;;;;;;5109341;27;45330;-81
2023/03/19 00:53:16;;;;;;;0.30;0.30;;;17.40;69.10;;;;;;5108651;27;45312;-81
2023/03/19 00:55:43;;;;;;;1.05;0.30;;;17.40;69.10;;;;;;5109180;27;45301;-81
2023/03/19 00:58:10;;;;;;;0.40;0.30;;;17.40;69.10;;;;;;5109093;27;45088;-81
2023/03/19 01:00:39;;;;;;;0.30;0.22;;;17.40;69.10;;;;;;5109239;27;45123;-81
2023/03/19 01:03:06;;;;;;;0.35;0.35;;;17.40;69.10;;;;;;5108470;27;46291;-81
2023/03/19 01:05:35;;;;;;;0.30;0.20;;;17.40;69.10;;;;;;5108774;27;45225;-81
2023/03/19 01:08:02;;;;;;;0.20;0.20;;;17.30;69.10;;;;;;5108738;27;45165;-81
2023/03/19 01:10:29;;;;;;;0.30;0.30;;;17.30;69.10;;;;;;5108862;27;45489;-81
2023/03/19 01:12:56;;;;;;;0.75;0.45;;;17.30;69.20;;;;;;5108618;27;45329;-80
2023/03/19 01:15:22;;;;;;;0.35;0.30;;;17.30;69.10;;;;;;5113065;27;45148;-80
2023/03/19 01:17:51;;;;;;;0.55;0.40;;;17.30;68.90;;;;;;5108740;27;45158;-81
2023/03/19 01:20:18;;;;;;;0.30;0.30;;;17.30;68.50;;;;;;5108650;27;45103;-80
2023/03/19 01:22:45;;;;;;;0.32;0.30;;;17.30;68.20;;;;;;5108197;27;48851;-80
2023/03/19 01:25:14;;;;;;;0.38;0.30;;;17.30;68.10;;;;;;5108611;27;45573;-79
2023/03/19 01:27:40;;;;;;;0.98;0.45;;;17.30;67.70;;;;;;5108502;27;45177;-80
2023/03/19 01:30:09;;;;;;;0.65;0.57;;;17.30;67.60;;;;;;5108720;27;45570;-79
2023/03/19 01:32:36;;;;;;;0.40;0.40;;;17.30;67.70;;;;;;5108258;27;48625;-80
2023/03/19 01:35:04;;;;;;;1.95;0.60;;;17.40;67.80;;;;;;5108149;27;45222;-80
2023/03/19 01:37:31;;;;;;;0.95;0.35;;;17.30;67.70;;;;;;5107806;27;45198;-80
2023/03/19 01:39:58;;;;;;;0.50;0.40;;;17.40;68.80;;;;;;5108552;27;45247;-80
2023/03/19 01:42:25;;;;;;;0.95;0.43;;;17.40;67.80;;;;;;5107551;27;47015;-80
2023/03/19 01:44:52;;;;;;;0.75;0.40;;;17.40;67.80;;;;;;5108085;27;45709;-80
2023/03/19 01:47:24;;;;;;;1.17;0.50;;;17.40;67.80;;;;;;5108290;27;45104;-80
2023/03/19 01:49:54;;;;;;;0.63;0.47;;;17.40;67.80;;;;;;5108563;27;45294;-80
2023/03/19 01:52:25;;;;;;;1.73;0.50;;;17.40;67.80;;;;;;5108103;27;48006;-80
2023/03/19 01:54:53;;;;;;;0.93;0.40;;;17.40;67.80;;;;;;5107964;27;45396;-80
2023/03/19 01:57:21;;;;;;;0.45;0.40;;;17.40;67.90;;;;;;5108053;27;45171;-80
2023/03/19 01:59:51;;;;;;;0.75;0.50;;;17.40;68.00;;;;;;5108059;27;45260;-80
2023/03/19 02:02:23;;;;;;;0.50;0.45;;;17.40;68.00;;;;;;5107845;27;48167;-80
2023/03/19 02:04:56;;;;;;;1.38;0.50;;;17.40;68.00;;;;;;5108071;27;45183;-80
2023/03/19 02:07:25;;;;;;;0.73;0.45;;;17.40;68.20;;;;;;5111481;27;45138;-80
2023/03/19 02:09:53;;;;;;;1.30;0.43;;;17.40;68.20;;;;;;5108507;27;45222;-80
2023/03/19 02:12:19;;;;;;;0.57;0.40;;;17.40;69.40;;;;;;5107733;27;46374;-80
2023/03/19 02:14:46;;;;;;;1.13;0.40;;;17.40;68.30;;;;;;5107480;27;45123;-80
2023/03/19 02:17:13;;;;;;;1.15;0.50;;;17.30;68.10;;;;;;5108225;27;45284;-80
2023/03/19 02:19:48;;;;;;;0.50;0.50;;;17.30;68.30;;;;;;5108118;27;45308;-80
2023/03/19 02:22:18;;;;;;;0.50;0.40;;;17.30;68.40;;;;;;5107183;27;45315;-80
2023/03/19 02:24:53;;;;;;;0.43;0.40;;;17.30;68.30;;;;;;5107449;27;45130;-80
2023/03/19 02:27:22;;;;;;;0.40;0.35;;;17.30;68.40;;;;;;5107685;27;45171;-80
2023/03/19 02:29:49;;;;;;;0.98;0.60;;;17.30;68.40;;;;;;5107648;27;45297;-80
2023/03/19 02:32:15;;;;;;;0.47;0.43;;;17.30;68.40;;;;;;5107343;27;47912;-80
2023/03/19 02:34:43;;;;;;;1.00;0.50;;;17.30;68.30;;;;;;5107494;27;45295;-80
2023/03/19 02:37:16;;;;;;;0.63;0.50;;;17.30;68.30;;;;;;5107376;27;45133;-79
2023/03/19 02:39:50;;;;;;;0.52;0.38;;;17.30;68.20;;;;;;5107947;27;45158;-79
2023/03/19 02:42:19;;;;;;;0.63;0.40;;;17.30;68.20;;;;;;5106682;27;48445;-80
2023/03/19 02:44:48;;;;;;;0.70;0.40;;;17.30;68.20;;;;;;5107275;27;45121;-79
2023/03/19 02:47:15;;;;;;;0.52;0.40;;;17.30;68.20;;;;;;5107037;27;45233;-79
2023/03/19 02:49:43;;;;;;;1.30;0.52;;;17.40;68.30;;;;;;5106067;27;45456;-80
2023/03/19 02:52:10;;;;;;;0.65;0.43;;;17.30;68.20;;;;;;5106785;27;47979;-80
2023/03/19 02:54:37;;;;;;;0.70;0.60;;;17.40;68.30;;;;;;5107322;27;45303;-80
2023/03/19 02:57:04;;;;;;;0.43;0.30;;;17.40;68.30;;;;;;5106862;27;45309;-80
2023/03/19 02:59:31;;;;;;;1.25;0.50;;;17.30;68.30;;;;;;5110515;27;45183;-80
2023/03/19 03:01:59;;;;;;;2.35;0.40;;;17.30;68.40;;;;;;5107652;27;47326;-80
2023/03/19 03:04:28;;;;;;;0.77;0.40;;;17.30;68.20;;;;;;5107138;27;45905;-80
2023/03/19 03:06:55;;;;;;;0.90;0.60;;;17.30;68.30;;;;;;5107294;27;45248;-80
2023/03/19 03:09:22;;;;;;;0.85;0.40;;;17.30;68.40;;;;;;5107195;27;45645;-80
2023/03/19 03:11:49;;;;;;;1.45;0.60;;;17.30;68.40;;;;;;5107277;27;47759;-80
2023/03/19 03:14:16;;;;;;;1.20;0.60;;;17.30;68.40;;;;;;5106517;27;45166;-80
2023/03/19 03:16:43;;;;;;;0.52;0.40;;;17.30;68.30;;;;;;5106681;27;45219;-80
2023/03/19 03:19:11;;;;;;;2.03;0.60;;;17.30;68.40;;;;;;5107298;27;45400;-80
2023/03/19 03:21:38;;;;;;;0.70;0.50;;;17.30;68.40;;;;;;5106207;27;48274;-80
2023/03/19 03:24:06;;;;;;;1.02;0.50;;;17.30;68.40;;;;;;5106810;27;45315;-79
2023/03/19 03:26:33;;;;;;;0.55;0.50;;;17.30;68.40;;;;;;5107090;27;45239;-80
2023/03/19 03:29:00;;;;;;;0.55;0.40;;;17.30;68.20;;;;;;5106997;27;45201;-80
2023/03/19 03:31:28;;;;;;;0.43;0.30;;;17.30;68.20;;;;;;5106306;27;46660;-80
2023/03/19 03:33:55;;;;;;;0.68;0.45;;;17.40;68.30;;;;;;5106425;27;45879;-80
2023/03/19 03:36:23;;;;;;;0.82;0.57;;;17.40;68.30;;;;;;5106557;27;45234;-80
2023/03/19 03:38:50;;;;;;;2.80;0.47;;;17.40;68.30;;;;;;5106546;27;45373;-80
2023/03/19 03:41:17;;;;;;;0.93;0.60;;;17.40;68.20;;;;;;5106153;27;46686;-81
2023/03/19 03:43:44;;;;;;;0.77;0.40;;;17.40;68.10;;;;;;5106377;27;45331;-81
2023/03/19 03:46:11;;;;;;;1.30;0.47;;;17.40;68.20;;;;;;5106752;27;45150;-81
2023/03/19 03:48:37;;;;;;;0.70;0.55;;;17.40;68.10;;;;;;5106809;27;45464;-81
2023/03/19 03:51:04;;;;;;;0.57;0.40;;;17.40;68.10;;;;;;5106489;27;45455;-81
2023/03/19 03:53:33;;;;;;;1.50;0.60;;;17.40;68.10;;;;;;5110258;27;45285;-80
2023/03/19 03:56:00;;;;;;;0.35;0.32;;;17.40;68.10;;;;;;5106672;27;45322;-81
2023/03/19 03:58:27;;;;;;;0.90;0.40;;;17.40;68.20;;;;;;5106447;27;45215;-80
2023/03/19 04:00:54;;;;;;;0.80;0.35;;;17.30;68.50;;;;;;5107352;27;46316;-80
2023/03/19 04:03:23;;;;;;;0.70;0.32;;;17.40;68.20;;;;;;5109557;27;45311;-81
2023/03/19 04:05:50;;;;;;;0.35;0.32;;;17.30;68.20;;;;;;5110390;27;45248;-81
2023/03/19 04:08:16;;;;;;;0.30;0.30;;;17.30;68.20;;;;;;5109744;27;45424;-80
2023/03/19 04:10:44;;;;;;;0.20;0.20;;;17.30;68.20;;;;;;5109779;27;48296;-81
2023/03/19 04:13:12;;;;;;;0.43;0.32;;;17.30;68.40;;;;;;5109771;27;45207;-81
2023/03/19 04:15:38;;;;;;;0.73;0.32;;;17.30;68.30;;;;;;5109696;27;45316;-80
2023/03/19 04:18:05;;;;;;;0.20;0.20;;;17.30;68.30;;;;;;5109759;27;45237;-80
2023/03/19 04:20:32;;;;;;;0.80;0.47;;;17.30;68.30;;;;;;5109881;27;45387;-80
2023/03/19 04:22:59;;;;;;;0.50;0.40;;;17.30;68.30;;;;;;5109490;27;45322;-80
2023/03/19 04:25:26;;;;;;;0.73;0.30;;;17.30;68.30;;;;;;5109359;27;45232;-81
2023/03/19 04:27:56;;;;;;;0.40;0.30;;;17.30;68.20;;;;;;5109266;27;45452;-81
2023/03/19 04:30:23;;;;;;;0.40;0.40;;;17.40;68.20;;;;;;5109629;27;45219;-81
2023/03/19 04:32:50;;;;;;;0.40;0.30;;;17.40;68.20;;;;;;5109089;27;45840;-81
2023/03/19 04:35:17;;;;;;;0.55;0.30;;;17.40;68.20;;;;;;5109256;27;45336;-80
2023/03/19 04:37:47;;;;;;;0.63;0.40;;;17.40;68.30;;;;;;5109581;27;45196;-81
2023/03/19 04:40:14;;;;;;;0.40;0.40;;;17.40;68.30;;;;;;5109060;27;45179;-81
2023/03/19 04:42:43;;;;;;;0.47;0.43;;;17.40;68.20;;;;;;5108593;27;45190;-81
2023/03/19 04:45:12;;;;;;;1.55;0.40;;;17.40;68.20;;;;;;5113049;27;45202;-81
2023/03/19 04:47:39;;;;;;;0.45;0.30;;;17.40;68.30;;;;;;5109852;27;45113;-80
2023/03/19 04:50:08;;;;;;;0.30;0.30;;;17.40;68.30;;;;;;5108843;27;46808;-81
2023/03/19 04:52:36;;;;;;;0.30;0.30;;;17.40;68.30;;;;;;5108859;27;45163;-80
2023/03/19 04:55:03;;;;;;;0.38;0.30;;;17.40;68.30;;;;;;5109350;27;45299;-80
2023/03/19 04:57:30;;;;;;;0.40;0.30;;;17.40;69.40;;;;;;5109069;27;45122;-80
2023/03/19 04:59:57;;;;;;;0.20;0.20;;;17.40;68.40;;;;;;5108976;27;45392;-80
2023/03/19 05:02:25;;;;;;;0.52;0.30;;;17.30;68.20;;;;;;5108744;27;45168;-81
2023/03/19 05:04:53;;;;;;;0.73;0.45;;;17.40;68.40;;;;;;5108887;27;45076;-80
2023/03/19 05:07:20;;;;;;;1.75;0.30;;;17.40;68.50;;;;;;5109101;27;45570;-80
2023/03/19 05:09:47;;;;;;;0.65;0.30;;;17.30;68.40;;;;;;5108704;27;47589;-81
2023/03/19 05:12:14;;;;;;;0.50;0.43;;;17.30;68.50;;;;;;5107775;27;45297;-80
2023/03/19 05:14:41;;;;;;;0.43;0.30;;;17.30;68.50;;;;;;5108872;27;45364;-81
2023/03/19 05:17:09;;;;;;;0.93;0.40;;;17.30;68.50;;;;;;5108629;27;45385;-81
2023/03/19 05:19:38;;;;;;;0.45;0.30;;;17.30;68.60;;;;;;5108490;27;47855;-80
2023/03/19 05:22:05;;;;;;;0.35;0.30;;;17.30;68.40;;;;;;5108517;27;46525;-81
2023/03/19 05:24:32;;;;;;;0.30;0.30;;;17.30;68.50;;;;;;5108434;27;45170;-81
2023/03/19 05:26:58;;;;;;;0.30;0.25;;;17.30;68.40;;;;;;5108717;27;45065;-80
2023/03/19 05:29:26;;;;;;;0.30;0.30;;;17.40;68.50;;;;;;5108052;27;48291;-81
2023/03/19 05:31:53;;;;;;;0.38;0.30;;;17.40;68.50;;;;;;5108209;27;45285;-80
2023/03/19 05:34:20;;;;;;;0.63;0.30;;;17.40;68.40;;;;;;5109083;27;45148;-80
2023/03/19 05:36:48;;;;;;;0.52;0.20;;;17.40;68.50;;;;;;5111313;27;45573;-80
2023/03/19 05:39:15;;;;;;;0.60;0.20;;;17.40;68.50;;;;;;5109022;27;47539;-80
2023/03/19 05:41:42;;;;;;;0.57;0.30;;;17.40;68.50;;;;;;5108145;27;45326;-81
2023/03/19 05:44:09;;;;;;;0.43;0.30;;;17.40;68.50;;;;;;5108387;27;45190;-80
2023/03/19 05:46:36;;;;;;;0.32;0.30;;;17.40;68.50;;;;;;5108407;27;45183;-80
2023/03/19 05:49:03;;;;;;;0.60;0.30;;;17.40;68.40;;;;;;5107889;27;46360;-80
2023/03/19 05:51:29;;;;;;;0.95;0.30;;;17.40;68.50;;;;;;5107818;27;45404;-80
2023/03/19 05:53:58;;;;;;;0.40;0.30;;;17.40;68.60;;;;;;5107852;27;45294;-81
2023/03/19 05:56:24;;;;;;;0.85;0.25;;;17.40;68.70;;;;;;5108536;27;45120;-81
2023/03/19 05:58:51;;;;;;;0.45;0.30;;;17.40;68.60;;;;;;5107813;27;46818;-81
2023/03/19 06:01:18;;;;;;;0.20;0.20;;;17.40;68.70;;;;;;5107804;27;45368;-80
2023/03/19 06:03:45;;;;;;;0.57;0.20;;;17.40;68.60;;;;;;5108091;27;45135;-81
2023/03/19 06:06:12;;;;;;;0.45;0.30;;;17.40;68.70;;;;;;5107893;27;45205;-81
2023/03/19 06:08:39;;;;;;;1.05;0.20;;;17.40;68.60;;;;;;5107892;27;47892;-80
2023/03/19 06:11:07;;;;;;;0.35;0.20;;;17.40;68.60;;;;;;5107634;27;45351;-81
2023/03/19 06:13:34;;;;;;;0.50;0.22;;;17.40;68.70;;;;;;5107956;27;45185;-80
2023/03/19 06:16:01;;;;;;;0.50;0.30;;;17.30;68.70;;;;;;5107714;27;45091;-81
2023/03/19 06:18:28;;;;;;;0.25;0.10;;;17.30;68.80;;;;;;5107587;27;47674;-81
2023/03/19 06:20:55;;;;;;;0.40;0.25;;;17.30;68.70;;;;;;5107532;27;45286;-81
2023/03/19 06:23:22;;;;;;;1.27;0.20;;;17.40;68.70;;;;;;5107357;27;45133;-81
2023/03/19 06:25:48;;;;;;;0.20;0.20;;;17.40;68.70;;;;;;5107656;27;45211;-81
2023/03/19 06:28:16;;;;;;;0.30;0.20;;;17.40;68.70;;;;;;5107433;27;45385;-81
2023/03/19 06:30:43;;;;;;;0.88;0.20;;;17.40;68.60;;;;;;5111337;27;45208;-81
2023/03/19 06:33:10;;;;;;;0.70;0.30;;;17.40;68.60;;;;;;5107972;27;45224;-81
2023/03/19 06:35:37;;;;;;;0.60;0.30;;;17.40;68.70;;;;;;5107321;27;45470;-80
2023/03/19 06:38:03;;;;;;;0.70;0.30;;;17.40;68.60;;;;;;5107410;27;47377;-81
2023/03/19 06:40:30;;;;;;;0.43;0.30;;;17.40;68.50;;;;;;5107530;27;45449;-80
2023/03/19 06:42:57;;;;;;;1.38;0.20;;;17.40;68.50;;;;;;5107111;27;45244;-81
2023/03/19 06:45:25;;;;;;;1.13;0.35;;;17.40;68.50;;;;;;5107709;27;45313;-80
2023/03/19 06:47:52;;;;;;;0.63;0.30;;;17.40;68.50;;;;;;5107206;27;47992;-81
2023/03/19 06:50:19;;;;;;;0.20;0.20;;;17.40;68.50;;;;;;5107358;27;45198;-81
2023/03/19 06:52:46;;;;;;;0.60;0.20;;;17.40;68.70;;;;;;5107740;27;45178;-81
2023/03/19 06:55:13;;;;;;;0.30;0.30;;;17.40;68.60;;;;;;5107194;27;45547;-80
2023/03/19 06:57:40;;;;;;;0.32;0.20;;;17.40;68.80;;;;;;5106741;27;48108;-80
2023/03/19 07:00:10;;;;;;;0.20;0.20;;;17.40;68.70;;;;;;5107388;27;45209;-81
2023/03/19 07:02:39;;;;;;;0.32;0.20;;;17.40;68.80;;;;;;5106886;27;45205;-81
2023/03/19 07:05:06;;;;;;;0.47;0.20;;;17.40;68.80;;;;;;5106922;27;45376;-80
2023/03/19 07:07:33;;;;;;;0.57;0.45;;;17.40;68.80;;;;;;5106699;27;47541;-81
2023/03/19 07:10:00;;;;;;;0.88;0.30;;;17.40;68.80;;;;;;5106845;27;45119;-81
2023/03/19 07:12:27;;;;;;;0.30;0.30;;;17.40;68.90;;;;;;5106996;27;45224;-81
2023/03/19 07:14:54;;;;;;;0.47;0.22;;;17.30;69.00;;;;;;5107037;27;45146;-81
2023/03/19 07:17:21;;;;;;;0.57;0.30;;;17.40;70.00;;;;;;5106491;27;46325;-81
2023/03/19 07:19:50;;;;;;;0.20;0.20;;;17.40;69.00;;;;;;5106476;27;45205;-80
2023/03/19 07:22:17;;;;;;;0.30;0.25;;;17.40;69.00;;;;;;5109778;27;45275;-81
2023/03/19 07:24:44;;;;;;;0.40;0.20;;;17.40;68.90;;;;;;5108212;27;45345;-80
2023/03/19 07:27:11;;;;;;;0.15;0.15;;;17.40;68.90;;;;;;5106681;27;47327;-81
2023/03/19 07:29:38;;;;;;;0.20;0.20;;;17.40;68.80;;;;;;5106540;27;45236;-81
2023/03/19 07:32:05;;;;;;;2.15;0.38;;;17.40;68.90;;;;;;5106974;27;45188;-81
2023/03/19 07:34:32;;;;;;;0.52;0.30;;;17.40;68.90;;;;;;5106777;27;45540;-81
2023/03/19 07:37:00;;;;;;;0.45;0.20;;;17.50;68.90;;;;;;5109126;27;45326;-81
2023/03/19 07:39:27;;;;;;;0.20;0.10;;;17.40;68.90;;;;;;5109985;27;45659;-79
2023/03/19 07:41:54;;;;;;;0.55;0.30;;;17.40;69.00;;;;;;5109948;27;45118;-80
2023/03/19 07:44:21;;;;;;;0.40;0.40;;;17.40;68.70;;;;;;5110559;27;45323;-81
2023/03/19 07:46:47;;;;;;;0.10;0.10;;;17.40;68.90;;;;;;5109741;27;46587;-82
2023/03/19 07:49:14;;;;;;;0.75;0.20;;;17.30;68.90;;;;;;5110220;27;45994;-82
2023/03/19 07:51:41;;;;;;;0.82;0.30;;;17.30;69.10;;;;;;5110356;27;45209;-81
2023/03/19 07:54:09;;;;;;;0.38;0.38;;;17.30;69.20;;;;;;5109966;27;45084;-82
2023/03/19 07:56:36;;;;;;;0.10;0.10;;;17.30;69.40;;;;;;5109793;27;48245;-82
2023/03/19 07:59:03;;;;;;;0.35;0.35;;;17.30;69.50;;;;;;5109824;27;45169;-82
2023/03/19 08:01:30;;;;;;;0.65;0.30;;;17.30;69.60;;;;;;5109749;27;45170;-82
2023/03/19 08:03:56;;;;;;;0.43;0.20;;;17.30;69.80;;;;;;5109632;27;45216;-81
2023/03/19 08:06:23;;;;;;;0.30;0.30;;;17.30;69.50;;;;;;5109540;27;46547;-82
2023/03/19 08:08:50;;;;;;;0.10;0.10;;;17.30;69.70;;;;;;5109516;27;45278;-82
2023/03/19 08:11:18;;;;;;;0.82;0.40;;;17.30;69.90;;;;;;5109718;27;45131;-82
2023/03/19 08:13:45;;;;;;;0.20;0.20;;;17.30;69.80;;;;;;5109954;27;45436;-81
2023/03/19 08:16:12;;;;;;;0.43;0.28;;;17.30;69.70;;;;;;5113572;27;47613;-82
2023/03/19 08:18:39;;;;;;;0.52;0.20;;;17.30;69.70;;;;;;5110037;27;45240;-82
2023/03/19 08:21:06;;;;;;;0.20;0.20;;;17.30;69.80;;;;;;5109893;27;45125;-81
2023/03/19 08:23:34;;;;;;;0.57;0.20;;;17.30;69.60;;;;;;5109768;27;45721;-81
2023/03/19 08:26:01;;;;;;;0.43;0.40;;;17.30;69.50;;;;;;5109846;27;46321;-81
2023/03/19 08:28:29;;;;;;;0.20;0.20;;;17.30;69.60;;;;;;5109567;27;45528;-81
2023/03/19 08:30:56;;;;;;;0.20;0.13;;;17.40;69.60;;;;;;5109754;27;45068;-81
2023/03/19 08:33:23;;;;;;;0.40;0.30;;;17.40;69.70;;;;;;5109444;27;45114;-81
2023/03/19 08:35:50;;;;;;;0.52;0.30;;;17.40;69.50;;;;;;5109066;27;46851;-81
2023/03/19 08:38:18;;;;;;;0.20;0.15;;;17.40;69.80;;;;;;5109268;27;45184;-81
2023/03/19 08:40:45;;;;;;;0.63;0.30;;;17.40;69.60;;;;;;5109253;27;45247;-82
2023/03/19 08:43:12;;;;;;;0.75;0.30;;;17.40;69.60;;;;;;5108890;27;45130;-80
2023/03/19 08:45:40;;;;;;;0.57;0.20;;;17.40;69.60;;;;;;5109135;27;45457;-81
2023/03/19 08:48:07;;;;;;;1.58;0.38;;;17.40;69.70;;;;;;5107836;27;45213;-81
2023/03/19 08:50:34;;;;;;;0.28;0.20;;;17.40;69.60;;;;;;5109634;27;45108;-81
2023/03/19 08:53:01;;;;;;;0.20;0.20;;;17.40;69.80;;;;;;5109337;27;45308;-82
2023/03/19 08:55:28;;;;;;;0.20;0.20;;;17.40;69.80;;;;;;5108642;27;45318;-81
2023/03/19 08:57:55;;;;;;;0.30;0.20;;;17.30;70.20;;;;;;5109047;27;45443;-80
2023/03/19 09:00:22;;;;;;;0.30;0.20;;;17.30;70.20;;;;;;5108961;27;45233;-82
2023/03/19 09:02:50;;;;;;;0.30;0.20;;;17.30;70.00;;;;;;5108837;27;45468;-81
2023/03/19 09:05:21;;;;;;;0.43;0.10;;;17.30;70.30;;;;;;5108820;27;47325;-81
2023/03/19 09:07:47;;;;;;;0.20;0.20;;;17.30;70.20;;;;;;5112282;27;45312;-81
2023/03/19 09:10:14;;;;;;;0.25;0.25;;;17.30;70.50;;;;;;5109453;27;45156;-81
2023/03/19 09:12:41;;;;;;;0.20;0.20;;;17.30;70.40;;;;;;5108965;27;45452;-80
2023/03/19 09:15:08;;;;;;;0.70;0.20;;;17.30;70.50;;;;;;5108566;27;46992;-80
2023/03/19 09:17:35;;;;;;;0.20;0.20;;;17.30;70.70;;;;;;5108433;27;45233;-81
2023/03/19 09:20:06;;;;;;;0.45;0.20;;;17.30;70.80;;;;;;5109003;27;45340;-81
2023/03/19 09:22:33;;;;;;;0.20;0.20;;;17.30;70.70;;;;;;5109333;27;45108;-81
2023/03/19 09:24:59;;;;;;;2.58;0.20;;;17.30;70.70;;;;;;5108059;27;48247;-81
2023/03/19 09:27:27;;;;;;;0.10;0.10;;;17.30;70.40;;;;;;5108301;27;45159;-81
2023/03/19 09:29:54;;;;;;;1.85;0.25;;;17.30;70.50;;;;;;5108697;27;45079;-81
2023/03/19 09:32:21;;;;;;;0.10;0.10;;;17.30;70.50;;;;;;5108990;27;45413;-81
2023/03/19 09:34:48;;;;;;;0.43;0.13;;;17.30;70.30;;;;;;5108137;27;46540;-81
2023/03/19 09:37:16;;;;;;;0.17;0.17;;;17.30;70.50;;;;;;5108296;27;45228;-81
2023/03/19 09:39:43;;;;;;;0.60;0.30;;;17.30;70.60;;;;;;5107231;27;45177;-81
2023/03/19 09:42:25;;;;;;;0.30;0.20;;;17.30;70.40;;;;;;5108537;27;45063;-81
2023/03/19 09:44:53;;;;;;;1.05;0.38;;;17.40;70.50;;;;;;5108051;27;46584;-81
2023/03/19 09:47:26;;;;;;;2.10;0.40;;;17.40;70.70;;;;;;5108043;27;45143;-81
2023/03/19 09:49:56;;;;;;;0.22;0.20;;;17.40;70.80;;;;;;5108523;27;45297;-81
2023/03/19 09:52:34;;;;;;;0.20;0.20;;;17.40;70.70;;;;;;5108287;27;45684;-81
2023/03/19 09:55:06;;;;;;;0.60;0.30;;;17.40;70.50;;;;;;5108380;27;47044;-81
2023/03/19 09:57:35;;;;;;;0.17;0.10;;;17.40;70.50;;;;;;5108161;27;45226;-80
2023/03/19 10:00:05;;;;;;;3.47;0.30;;;17.40;70.50;;;;;;5111111;27;45159;-81
2023/03/19 10:02:40;;;;;;;0.70;0.20;;;17.40;70.50;;;;;;5108879;27;45113;-81
2023/03/19 10:05:17;;;;;;;0.25;0.10;;;17.40;70.70;;;;;;5107643;27;45471;-81
2023/03/19 10:08:02;;;;;;;0.20;0.20;;;17.40;70.40;;;;;;5107895;27;45358;-81
2023/03/19 10:10:44;;;;;;;0.10;0.10;;;17.40;70.50;;;;;;5107816;27;45190;-81
2023/03/19 10:13:22;;;;;;;0.20;0.20;;;17.40;70.40;;;;;;5108168;27;45581;-81
2023/03/19 10:15:52;;;;;;;0.57;0.20;;;17.40;70.40;;;;;;5107894;27;47544;-81
2023/03/19 10:18:21;;;;;;;0.20;0.20;;;17.40;70.40;;;;;;5107766;27;45955;-81
2023/03/19 10:20:55;;;;;;;0.40;0.10;;;17.40;70.40;;;;;;5107773;27;45243;-81
2023/03/19 10:23:34;;;;;;;0.10;0.10;;;17.40;70.20;;;;;;5107793;27;45510;-81
2023/03/19 10:26:03;;;;;;;0.65;0.28;;;17.40;70.50;;;;;;5107592;27;48407;-81
2023/03/19 10:28:30;;;;;;;0.30;0.20;;;17.40;70.50;;;;;;5107662;27;45171;-81
2023/03/19 10:31:07;;;;;;;0.35;0.30;;;17.40;70.30;;;;;;5107598;27;45277;-81
2023/03/19 10:33:43;;;;;;;0.15;0.15;;;17.40;70.10;;;;;;5107473;27;45284;-81
2023/03/19 10:36:11;;;;;;;0.10;0.10;;;17.50;70.10;;;;;;5107477;27;46583;-81
2023/03/19 10:38:41;;;;;;;0.30;0.30;;;17.50;70.00;;;;;;5107547;27;45309;-81
2023/03/19 10:41:27;;;;;;;0.30;0.20;;;17.50;70.00;;;;;;5107710;27;45138;-81
2023/03/19 10:43:58;;;;;;;0.90;0.25;;;17.50;69.90;;;;;;5107206;27;45529;-80
2023/03/19 10:46:25;;;;;;;0.20;0.17;;;17.50;69.90;;;;;;5107190;27;45182;-80
2023/03/19 10:48:53;;;;;;;0.20;0.20;;;17.50;70.10;;;;;;5107543;27;45438;-81
2023/03/19 10:51:24;;;;;;;0.50;0.20;;;17.50;70.20;;;;;;5107093;27;45337;-80
2023/03/19 10:53:55;;;;;;;0.63;0.30;;;17.50;70.20;;;;;;5111815;27;45211;-80
2023/03/19 10:56:24;;;;;;;0.30;0.30;;;17.50;70.20;;;;;;5106871;27;46568;-80
2023/03/19 10:58:59;;;;;;;0.20;0.10;;;17.50;70.20;;;;;;5106775;27;45349;-81
2023/03/19 11:01:31;;;;;;;0.70;0.30;;;17.50;70.10;;;;;;5107477;27;45356;-81
2023/03/19 11:03:59;;;;;;;0.22;0.20;;;17.50;70.10;;;;;;5107500;27;45134;-80
2023/03/19 11:06:30;;;;;;;0.10;0.10;;;17.50;70.00;;;;;;5106921;27;45295;-80
2023/03/19 11:09:01;;;;;;;0.20;0.20;;;17.50;70.00;;;;;;5107127;27;45158;-81
2023/03/19 11:11:34;;;;;;;0.55;0.22;;;17.50;70.00;;;;;;5106193;27;45108;-80
2023/03/19 11:14:08;;;;;;;0.10;0.10;;;17.50;70.00;;;;;;5106828;27;45443;-80
2023/03/19 11:16:51;;;;;;;0.20;0.20;;;17.40;69.60;;;;;;5107000;27;48644;-81
2023/03/19 11:19:21;;;;;;;0.10;0.10;;;17.40;69.60;;;;;;5106552;27;45223;-80
2023/03/19 11:22:00;;;;;;;0.98;0.20;;;17.50;69.80;;;;;;5106755;27;45162;-80
2023/03/19 11:24:32;;;;;;;0.20;0.20;;;17.50;69.80;;;;;;5103932;27;45279;-80
2023/03/19 11:26:59;;;;;;;0.40;0.22;;;17.50;70.80;;;;;;5106364;27;45484;-80
2023/03/19 11:29:28;;;;;;;0.65;0.32;;;17.50;69.70;;;;;;5106714;27;45918;-80
2023/03/19 11:32:02;;;;;;;0.52;0.40;;;17.50;69.70;;;;;;5106920;27;45213;-80
2023/03/19 11:34:35;;;;;;;0.30;0.30;;;17.50;69.70;;;;;;5106884;27;45383;-80
2023/03/19 11:37:11;;;;;;;0.52;0.30;;;17.50;69.80;;;;;;5106935;27;47647;-80
2023/03/19 11:39:48;;;;;;;0.28;0.28;;;17.50;70.00;;;;;;5106604;27;45679;-80
2023/03/19 11:42:48;;;;;;;1.85;0.30;;;17.50;70.00;;;;;;5104494;27;45228;-80
2023/03/19 11:45:24;;;;;;;0.52;0.28;;;17.50;70.00;;;;;;5103519;27;45214;-80
2023/03/19 11:48:03;;;;;;;0.32;0.30;;;17.50;70.10;;;;;;5106714;27;46308;-80
2023/03/19 11:50:38;;;;;;;0.22;0.22;;;17.50;70.00;;;;;;5106423;27;45261;-81
2023/03/19 11:53:18;;;;;;;0.30;0.20;;;17.50;70.00;;;;;;5106828;27;45151;-80
2023/03/19 11:55:52;;;;;;;0.30;0.20;;;17.50;69.80;;;;;;5106342;27;45072;-80
2023/03/19 11:58:38;;;;;;;0.35;0.35;;;17.50;69.90;;;;;;5106391;27;47128;-80
2023/03/19 12:01:15;;;;;;;0.43;0.30;;;17.50;69.80;;;;;;5106955;27;45223;-80
2023/03/19 12:04:17;;;;;;;0.20;0.20;;;17.50;69.70;;;;;;5103683;27;45208;-80
2023/03/19 12:06:52;;;;;;;0.40;0.30;;;17.50;69.80;;;;;;5082640;27;45278;-80
2023/03/19 12:09:28;;;;;;;0.32;0.30;;;17.50;69.90;;;;;;5106195;27;46296;-80
2023/03/19 12:12:04;;;;;;;0.30;0.30;;;17.50;69.90;;;;;;5106585;27;45152;-80
2023/03/19 12:14:46;;;;;;;0.25;0.25;;;17.50;70.00;;;;;;5106028;27;45166;-80
2023/03/19 12:17:23;;;;;;;0.28;0.20;;;17.50;70.00;;;;;;5106801;27;45132;-80
2023/03/19 12:20:10;;;;;;;0.20;0.20;;;17.40;69.90;;;;;;5106001;27;45276;-80
2023/03/19 12:22:52;;;;;;;0.30;0.20;;;17.50;70.00;;;;;;5108458;27;46405;-80
2023/03/19 12:25:34;;;;;;;0.20;0.20;;;17.50;70.50;;;;;;5109570;27;45126;-80
2023/03/19 12:28:11;;;;;;;0.35;0.30;;;17.50;70.30;;;;;;5109610;27;45199;-80
2023/03/19 12:30:41;;;;;;;0.40;0.30;;;17.50;70.20;;;;;;5109106;27;45625;-80
2023/03/19 12:33:18;;;;;;;0.17;0.17;;;17.50;70.30;;;;;;5109086;27;45243;-80
2023/03/19 12:35:48;;;;;;;0.57;0.43;;;17.50;70.30;;;;;;5109655;27;45345;-81
2023/03/19 12:38:23;;;;;;;0.25;0.20;;;17.50;70.50;;;;;;5113374;27;45598;-80
2023/03/19 12:40:54;;;;;;;0.57;0.28;;;17.50;70.40;;;;;;5109163;27;46528;-80
2023/03/19 12:43:28;;;;;;;0.30;0.30;;;17.50;70.40;;;;;;5108759;27;45801;-80
2023/03/19 12:46:02;;;;;;;0.40;0.30;;;17.50;70.40;;;;;;5109443;27;45301;-81
2023/03/19 12:48:32;;;;;;;0.60;0.32;;;17.50;70.60;;;;;;5109345;27;45146;-80
2023/03/19 12:51:05;;;;;;;0.10;0.10;;;17.50;70.70;;;;;;5109229;27;46736;-80
2023/03/19 12:53:41;;;;;;;0.50;0.30;;;17.50;70.70;;;;;;5109234;27;45995;-81
2023/03/19 12:56:12;;;;;;;0.30;0.30;;;17.50;70.80;;;;;;5106424;27;45224;-81
2023/03/19 12:58:50;;;;;;;0.55;0.40;;;17.50;70.80;;;;;;5109123;27;45330;-81